createdAt,value
2022-12-27T00:01:20.187Z,83.61
2022-12-27T00:03:21.747Z,83.97
2022-12-27T00:05:23.206Z,84.54
2022-12-27T00:07:24.690Z,84.20
2022-12-27T00:09:26.079Z,83.86
2022-12-27T00:11:31.371Z,83.81
2022-12-27T00:13:32.786Z,84.30
2022-12-27T00:15:35.641Z,84.42
2022-12-27T00:17:37.614Z,84.92
2022-12-27T00:19:39.043Z,84.77
2022-12-27T00:21:40.499Z,84.65
2022-12-27T00:23:44.858Z,84.90
2022-12-27T00:25:46.222Z,84.68
2022-12-27T00:27:47.611Z,85.01
2022-12-27T00:29:48.996Z,85.10
2022-12-27T00:31:50.448Z,84.96
2022-12-27T00:33:54.505Z,84.68
2022-12-27T00:35:57.891Z,85.05
2022-12-27T00:37:59.325Z,84.35
2022-12-27T00:40:00.659Z,84.77
2022-12-27T00:42:02.097Z,84.95
2022-12-27T00:44:03.533Z,85.56
2022-12-27T00:46:05.097Z,85.50
2022-12-27T00:48:06.543Z,85.67
2022-12-27T00:50:08.274Z,85.13
2022-12-27T00:52:09.632Z,85.40
2022-12-27T00:54:11.130Z,85.53
2022-12-27T00:56:16.265Z,85.55
2022-12-27T00:58:17.687Z,85.67
2022-12-27T01:00:19.249Z,85.83
2022-12-27T01:02:20.754Z,85.84
2022-12-27T01:04:22.204Z,85.62
2022-12-27T01:06:28.897Z,86.14
2022-12-27T01:08:30.349Z,85.87
2022-12-27T01:10:32.759Z,86.17
2022-12-27T01:12:36.130Z,86.03
2022-12-27T01:14:37.532Z,85.76
2022-12-27T01:16:40.483Z,86.63
2022-12-27T01:18:41.991Z,86.26
2022-12-27T01:20:43.361Z,86.36
2022-12-27T01:22:44.756Z,86.79
2022-12-27T01:24:46.123Z,86.81
2022-12-27T01:26:47.541Z,86.29
2022-12-27T01:28:49.799Z,87.08
2022-12-27T01:30:51.181Z,86.88
2022-12-27T01:32:52.648Z,87.11
2022-12-27T01:34:54.054Z,87.10
2022-12-27T01:36:55.433Z,87.02
2022-12-27T01:38:58.151Z,87.63
2022-12-27T01:40:59.494Z,87.72
2022-12-27T01:43:00.877Z,86.77
2022-12-27T01:45:03.843Z,87.47
2022-12-27T01:47:32.905Z,87.31
2022-12-27T01:49:34.317Z,87.43
2022-12-27T01:51:35.964Z,87.57
2022-12-27T01:53:41.907Z,87.55
2022-12-27T01:55:51.551Z,87.00
2022-12-27T01:57:58.505Z,86.67
2022-12-27T02:00:00.689Z,86.45
2022-12-27T02:02:03.032Z,86.96
2022-12-27T02:04:10.426Z,87.16
2022-12-27T02:06:13.883Z,87.17
2022-12-27T02:08:37.409Z,87.37
2022-12-27T02:10:39.692Z,87.32
2022-12-27T02:12:41.156Z,87.57
2022-12-27T02:14:49.061Z,87.61
2022-12-27T02:16:51.926Z,87.88
2022-12-27T02:18:53.382Z,88.16
2022-12-27T02:21:19.591Z,87.64
2022-12-27T02:23:42.702Z,87.43
2022-12-27T02:26:04.549Z,87.64
2022-12-27T02:28:08.850Z,87.65
2022-12-27T02:30:12.946Z,88.00
2022-12-27T02:32:27.839Z,87.64
2022-12-27T02:34:37.194Z,88.16
2022-12-27T02:36:41.514Z,87.98
2022-12-27T02:38:49.015Z,87.98
2022-12-27T02:41:09.964Z,88.01
2022-12-27T02:43:30.197Z,87.90
2022-12-27T02:45:55.049Z,88.15
2022-12-27T02:48:14.787Z,87.78
2022-12-27T02:50:35.051Z,88.80
2022-12-27T02:53:05.687Z,88.57
2022-12-27T02:55:23.586Z,88.67
2022-12-27T02:57:41.012Z,88.73
2022-12-27T03:00:08.089Z,88.97
2022-12-27T03:02:30.968Z,88.83
2022-12-27T03:04:46.707Z,88.85
2022-12-27T03:07:10.453Z,88.99
2022-12-27T03:09:53.072Z,88.46
2022-12-27T03:12:13.815Z,88.85
2022-12-27T03:14:45.056Z,88.26
2022-12-27T03:16:58.221Z,88.23
2022-12-27T03:19:40.785Z,88.54
2022-12-27T03:22:04.574Z,88.75
2022-12-27T03:24:36.556Z,89.04
2022-12-27T03:26:42.506Z,88.45
2022-12-27T03:29:04.755Z,88.22
2022-12-27T03:31:31.176Z,88.98
2022-12-27T03:33:34.390Z,89.01
2022-12-27T03:35:40.679Z,88.86
2022-12-27T03:38:05.185Z,88.31
2022-12-27T03:40:38.773Z,88.66
2022-12-27T03:43:13.157Z,88.36
2022-12-27T03:45:14.747Z,89.23
2022-12-27T03:47:31.284Z,89.23
2022-12-27T03:49:32.586Z,88.66
2022-12-27T03:51:46.471Z,89.24
2022-12-27T03:53:53.364Z,89.54
2022-12-27T03:55:54.800Z,89.46
2022-12-27T03:57:56.312Z,89.21
2022-12-27T03:59:57.759Z,89.37
2022-12-27T04:01:59.997Z,88.93
2022-12-27T04:04:01.521Z,88.94
2022-12-27T04:06:02.942Z,89.31
2022-12-27T04:08:22.917Z,89.48
2022-12-27T04:10:42.607Z,89.53
2022-12-27T04:13:02.395Z,89.25
2022-12-27T04:15:22.653Z,89.23
2022-12-27T04:17:42.315Z,89.26
2022-12-27T04:20:02.336Z,89.14
2022-12-27T04:22:22.449Z,89.05
2022-12-27T04:24:42.271Z,89.66
2022-12-27T04:27:02.030Z,89.54
2022-12-27T04:29:21.874Z,89.43
2022-12-27T04:31:42.007Z,90.11
2022-12-27T04:34:01.804Z,90.07
2022-12-27T04:36:06.306Z,89.42
2022-12-27T04:38:08.117Z,89.61
2022-12-27T04:40:28.276Z,90.13
2022-12-27T04:42:48.535Z,90.36
2022-12-27T04:45:14.934Z,90.04
2022-12-27T04:47:39.286Z,89.88
2022-12-27T04:49:59.508Z,89.69
2022-12-27T04:52:19.874Z,89.43
2022-12-27T04:54:41.756Z,89.86
2022-12-27T04:56:43.197Z,89.98
2022-12-27T04:59:04.547Z,89.46
2022-12-27T05:01:24.789Z,89.51
2022-12-27T05:03:26.265Z,89.85
2022-12-27T05:05:27.892Z,89.77
2022-12-27T05:07:48.179Z,89.43
2022-12-27T05:10:08.548Z,89.27
2022-12-27T05:12:29.291Z,89.05
2022-12-27T05:14:30.692Z,89.54
2022-12-27T05:16:36.011Z,89.19
2022-12-27T05:18:37.459Z,89.16
2022-12-27T05:20:38.910Z,89.12
2022-12-27T05:22:58.843Z,89.36
2022-12-27T05:25:18.710Z,89.22
2022-12-27T05:27:20.195Z,89.00
2022-12-27T05:29:21.551Z,88.89
2022-12-27T05:31:24.758Z,89.36
2022-12-27T05:33:26.166Z,88.70
2022-12-27T05:35:28.255Z,88.79
2022-12-27T05:37:29.686Z,88.89
2022-12-27T05:39:31.484Z,88.47
2022-12-27T05:41:32.856Z,88.60
2022-12-27T05:43:35.247Z,88.14
2022-12-27T05:45:36.636Z,88.31
2022-12-27T05:47:38.456Z,88.65
2022-12-27T05:49:40.000Z,88.63
2022-12-27T05:51:41.433Z,88.65
2022-12-27T05:53:43.293Z,88.06
2022-12-27T05:55:45.214Z,88.56
2022-12-27T05:57:46.779Z,88.32
2022-12-27T05:59:48.452Z,88.46
2022-12-27T06:01:51.520Z,88.34
2022-12-27T06:03:53.031Z,88.74
2022-12-27T06:06:00.573Z,88.51
2022-12-27T06:08:02.020Z,88.25
2022-12-27T06:10:06.498Z,88.23
2022-12-27T06:12:07.897Z,87.98
2022-12-27T06:14:09.304Z,87.81
2022-12-27T06:16:12.455Z,87.79
2022-12-27T06:18:14.339Z,87.69
2022-12-27T06:20:16.066Z,87.78
2022-12-27T06:22:18.142Z,87.51
2022-12-27T06:24:19.585Z,87.68
2022-12-27T06:26:24.167Z,87.44
2022-12-27T06:28:25.600Z,87.63
2022-12-27T06:30:31.541Z,86.79
2022-12-27T06:32:36.035Z,87.25
2022-12-27T06:34:37.534Z,87.48
2022-12-27T06:36:38.932Z,87.20
2022-12-27T06:38:40.827Z,87.43
2022-12-27T06:40:42.592Z,86.96
2022-12-27T06:42:44.047Z,86.60
2022-12-27T06:44:46.082Z,87.17
2022-12-27T06:46:47.553Z,87.09
2022-12-27T06:48:48.990Z,86.72
2022-12-27T06:50:51.164Z,87.14
2022-12-27T06:52:53.065Z,87.11
2022-12-27T06:54:54.628Z,87.17
2022-12-27T06:56:56.964Z,86.97
2022-12-27T06:58:58.750Z,86.72
2022-12-27T07:01:24.296Z,86.38
2022-12-27T07:03:26.100Z,86.38
2022-12-27T07:05:27.653Z,86.75
2022-12-27T07:07:29.010Z,86.55
2022-12-27T07:09:30.458Z,86.45
2022-12-27T07:11:33.982Z,86.23
2022-12-27T07:13:37.315Z,86.23
2022-12-27T07:15:38.860Z,86.34
2022-12-27T07:17:40.325Z,85.99
2022-12-27T07:19:41.889Z,85.89
2022-12-27T07:21:43.327Z,86.09
2022-12-27T07:23:46.755Z,85.56
2022-12-27T07:25:48.735Z,85.73
2022-12-27T07:27:50.155Z,85.68
2022-12-27T07:29:51.807Z,85.67
2022-12-27T07:31:53.485Z,85.86
2022-12-27T07:33:55.683Z,85.63
2022-12-27T07:35:59.356Z,85.88
2022-12-27T07:38:00.751Z,85.91
2022-12-27T07:40:02.163Z,86.09
2022-12-27T07:42:08.136Z,85.93
2022-12-27T07:44:11.068Z,85.88
2022-12-27T07:46:18.808Z,85.91
2022-12-27T07:48:20.528Z,85.79
2022-12-27T07:50:22.062Z,85.74
2022-12-27T07:52:43.833Z,85.95
2022-12-27T07:54:45.216Z,86.13
2022-12-27T07:56:46.622Z,85.62
2022-12-27T07:58:49.835Z,86.38
2022-12-27T08:00:52.329Z,85.91
2022-12-27T08:02:53.783Z,86.48
2022-12-27T08:04:55.201Z,85.99
2022-12-27T08:07:12.288Z,86.58
2022-12-27T08:09:17.061Z,86.36
2022-12-27T08:11:19.498Z,86.39
2022-12-27T08:13:20.948Z,86.44
2022-12-27T08:15:22.547Z,86.27
2022-12-27T08:17:27.093Z,86.22
2022-12-27T08:19:28.572Z,86.29
2022-12-27T08:21:29.955Z,86.02
2022-12-27T08:23:31.700Z,86.29
2022-12-27T08:25:33.105Z,85.94
2022-12-27T08:27:34.593Z,86.18
2022-12-27T08:29:36.626Z,86.42
2022-12-27T08:31:37.995Z,86.49
2022-12-27T08:33:41.808Z,86.43
2022-12-27T08:35:53.937Z,86.50
2022-12-27T08:37:55.912Z,86.43
2022-12-27T08:40:02.484Z,86.39
2022-12-27T08:42:04.285Z,86.21
2022-12-27T08:44:06.368Z,85.94
2022-12-27T08:46:08.421Z,86.50
2022-12-27T08:48:09.948Z,86.50
2022-12-27T08:50:11.459Z,86.00
2022-12-27T08:52:12.824Z,86.58
2022-12-27T08:54:14.222Z,86.34
2022-12-27T08:56:15.588Z,85.89
2022-12-27T08:58:17.030Z,86.28
2022-12-27T09:00:18.556Z,86.09
2022-12-27T09:02:20.173Z,86.37
2022-12-27T09:04:21.800Z,86.21
2022-12-27T09:06:25.844Z,85.66
2022-12-27T09:08:27.241Z,86.08
2022-12-27T09:10:28.686Z,85.67
2022-12-27T09:12:32.572Z,85.83
2022-12-27T09:14:34.040Z,85.66
2022-12-27T09:16:35.886Z,85.56
2022-12-27T09:18:42.015Z,85.34
2022-12-27T09:20:43.430Z,85.38
2022-12-27T09:22:45.203Z,85.06
2022-12-27T09:24:46.758Z,85.62
2022-12-27T09:26:48.235Z,85.18
2022-12-27T09:28:50.374Z,85.40
2022-12-27T09:30:51.935Z,85.13
2022-12-27T09:32:53.353Z,85.04
2022-12-27T09:34:54.986Z,85.29
2022-12-27T09:36:56.361Z,85.25
2022-12-27T09:38:58.849Z,84.83
2022-12-27T09:41:03.710Z,84.88
2022-12-27T09:43:19.513Z,85.16
2022-12-27T09:45:37.302Z,85.32
2022-12-27T09:47:46.952Z,85.06
2022-12-27T09:49:58.667Z,85.02
2022-12-27T09:52:23.059Z,85.09
2022-12-27T09:54:36.037Z,84.79
2022-12-27T09:57:09.639Z,84.78
2022-12-27T09:59:10.515Z,84.67
2022-12-27T10:01:20.258Z,83.94
2022-12-27T10:03:25.389Z,84.39
2022-12-27T10:05:33.790Z,84.61
2022-12-27T10:07:47.107Z,84.00
2022-12-27T10:10:00.457Z,83.86
2022-12-27T10:12:04.890Z,83.96
2022-12-27T10:14:26.010Z,83.02
2022-12-27T10:16:53.318Z,83.61
2022-12-27T10:19:15.883Z,82.66
2022-12-27T10:21:22.750Z,83.67
2022-12-27T10:23:27.909Z,81.52
2022-12-27T10:25:30.427Z,82.09
2022-12-27T10:27:32.047Z,82.97
2022-12-27T10:29:34.055Z,82.21
2022-12-27T10:31:41.353Z,82.53
2022-12-27T10:33:44.064Z,81.88
2022-12-27T10:35:46.038Z,83.00
2022-12-27T10:37:48.864Z,82.33
2022-12-27T10:39:50.250Z,82.46
2022-12-27T10:42:26.618Z,82.36
2022-12-27T10:44:29.261Z,81.38
2022-12-27T10:46:33.671Z,82.41
2022-12-27T10:48:54.664Z,82.26
2022-12-27T10:51:06.113Z,81.90
2022-12-27T10:53:27.166Z,82.10
2022-12-27T10:55:37.493Z,82.13
2022-12-27T10:57:38.906Z,81.37
2022-12-27T10:59:40.323Z,81.39
2022-12-27T11:01:42.199Z,81.49
2022-12-27T11:03:43.786Z,81.02
2022-12-27T11:06:00.012Z,81.70
2022-12-27T11:08:20.295Z,82.34
2022-12-27T11:10:25.129Z,82.28
2022-12-27T11:12:33.103Z,81.55
2022-12-27T11:14:37.547Z,80.92
2022-12-27T11:16:41.248Z,81.56
2022-12-27T11:18:53.180Z,80.47
2022-12-27T11:20:57.663Z,80.66
2022-12-27T11:23:02.985Z,81.21
2022-12-27T11:25:04.588Z,80.59
2022-12-27T11:27:06.054Z,81.24
2022-12-27T11:29:17.722Z,80.35
2022-12-27T11:31:31.529Z,79.77
2022-12-27T11:33:50.033Z,81.21
2022-12-27T11:35:54.201Z,80.12
2022-12-27T11:37:56.321Z,82.87
2022-12-27T11:40:25.760Z,81.11
2022-12-27T11:42:49.968Z,79.58
2022-12-27T11:45:15.435Z,80.21
2022-12-27T11:47:41.207Z,79.44
2022-12-27T11:50:05.788Z,79.61
2022-12-27T11:52:41.334Z,79.58
2022-12-27T11:55:19.206Z,79.60
2022-12-27T11:58:02.987Z,79.41
2022-12-27T12:00:19.303Z,78.91
2022-12-27T12:03:02.849Z,79.31
2022-12-27T12:05:35.275Z,78.78
2022-12-27T12:07:36.788Z,78.10
2022-12-27T12:09:56.383Z,78.29
2022-12-27T12:12:14.967Z,78.33
2022-12-27T12:14:40.309Z,78.72
2022-12-27T12:16:57.770Z,77.94
2022-12-27T12:19:21.587Z,78.29
2022-12-27T12:21:42.575Z,77.90
2022-12-27T12:24:03.102Z,78.72
2022-12-27T12:26:13.451Z,78.49
2022-12-27T12:28:57.597Z,77.26
2022-12-27T12:31:19.141Z,77.80
2022-12-27T12:33:39.160Z,78.95
2022-12-27T12:35:57.416Z,79.16
2022-12-27T12:38:16.135Z,78.30
2022-12-27T12:40:29.881Z,79.27
2022-12-27T12:42:51.573Z,78.93
2022-12-27T12:45:17.865Z,79.19
2022-12-27T12:47:44.255Z,78.86
2022-12-27T12:49:51.779Z,80.04
2022-12-27T12:52:11.323Z,80.63
2022-12-27T12:54:24.603Z,80.45
2022-12-27T12:56:58.791Z,80.52
2022-12-27T12:59:41.660Z,80.52
2022-12-27T13:02:12.607Z,81.20
2022-12-27T13:04:37.537Z,81.53
2022-12-27T13:07:03.396Z,81.90
2022-12-27T13:09:34.126Z,80.97
2022-12-27T13:12:02.318Z,81.51
2022-12-27T13:14:16.248Z,81.35
2022-12-27T13:16:36.501Z,81.64
2022-12-27T13:18:50.074Z,81.72
2022-12-27T13:21:11.109Z,82.50
2022-12-27T13:23:37.465Z,82.70
2022-12-27T13:25:53.717Z,81.96
2022-12-27T13:28:32.501Z,82.30
2022-12-27T13:30:41.714Z,82.38
2022-12-27T13:33:14.356Z,82.77
2022-12-27T13:35:52.391Z,81.95
2022-12-27T13:38:06.053Z,82.57
2022-12-27T13:40:50.585Z,82.63
2022-12-27T13:43:10.645Z,82.28
2022-12-27T13:45:36.895Z,82.96
2022-12-27T13:47:56.709Z,82.89
2022-12-27T13:50:28.883Z,82.82
2022-12-27T13:52:42.303Z,83.26
2022-12-27T13:55:08.708Z,83.09
2022-12-27T13:57:28.120Z,83.46
2022-12-27T13:59:38.774Z,82.45
2022-12-27T14:02:02.072Z,82.49
2022-12-27T14:04:38.121Z,82.84
2022-12-27T14:06:58.275Z,83.14
2022-12-27T14:09:10.134Z,82.57
2022-12-27T14:11:30.045Z,82.21
2022-12-27T14:13:36.609Z,83.21
2022-12-27T14:16:16.391Z,83.30
2022-12-27T14:18:51.412Z,82.44
2022-12-27T14:21:05.395Z,82.60
2022-12-27T14:23:18.762Z,83.34
2022-12-27T14:25:26.260Z,82.41
2022-12-27T14:27:46.515Z,82.76
2022-12-27T14:30:25.447Z,82.42
2022-12-27T14:32:37.928Z,82.42
2022-12-27T14:35:08.424Z,82.20
2022-12-27T14:37:37.510Z,82.75
2022-12-27T14:39:44.997Z,82.58
2022-12-27T14:42:24.092Z,82.75
2022-12-27T14:44:44.032Z,82.32
2022-12-27T14:47:24.753Z,82.47
2022-12-27T14:49:50.182Z,81.88
2022-12-27T14:52:04.533Z,82.10
2022-12-27T14:54:28.050Z,82.51
2022-12-27T14:56:32.673Z,82.18
2022-12-27T14:59:09.560Z,82.55
2022-12-27T15:01:20.222Z,82.56
2022-12-27T15:03:48.709Z,82.60
2022-12-27T15:06:20.841Z,82.87
2022-12-27T15:08:46.643Z,83.30
2022-12-27T15:11:25.707Z,82.64
2022-12-27T15:13:48.729Z,83.11
2022-12-27T15:16:15.923Z,83.60
2022-12-27T15:18:26.424Z,83.46
2022-12-27T15:20:43.067Z,83.25
2022-12-27T15:22:50.452Z,83.43
2022-12-27T15:27:58.551Z,83.39
2022-12-27T15:30:05.651Z,83.28
2022-12-27T15:32:24.827Z,83.37
2022-12-27T15:34:50.767Z,83.45
2022-12-27T15:36:52.176Z,82.49
2022-12-27T15:38:55.055Z,83.15
2022-12-27T15:41:08.621Z,83.32
2022-12-27T15:43:09.899Z,82.89
2022-12-27T15:45:41.116Z,84.17
2022-12-27T15:48:03.225Z,83.70
2022-12-27T15:50:18.533Z,83.67
2022-12-27T15:52:38.438Z,83.88
2022-12-27T15:55:05.651Z,83.91
2022-12-27T15:57:19.026Z,84.30
2022-12-27T15:59:39.223Z,84.14
2022-12-27T16:01:40.903Z,84.25
2022-12-27T16:03:46.974Z,83.49
2022-12-27T16:05:52.298Z,83.70
2022-12-27T16:07:59.618Z,83.51
2022-12-27T16:10:29.866Z,83.97
2022-12-27T16:12:39.203Z,83.50
2022-12-27T16:14:43.182Z,83.51
2022-12-27T16:16:53.818Z,83.41
2022-12-27T16:19:18.169Z,83.14
2022-12-27T16:21:23.522Z,83.16
2022-12-27T16:23:34.396Z,84.09
2022-12-27T16:25:39.078Z,83.43
2022-12-27T16:27:42.630Z,82.11
2022-12-27T16:29:44.672Z,82.16
2022-12-27T16:31:49.808Z,82.04
2022-12-27T16:33:53.400Z,82.91
2022-12-27T16:36:15.857Z,81.65
2022-12-27T16:38:22.286Z,82.12
2022-12-27T16:40:26.627Z,81.20
2022-12-27T16:42:53.898Z,81.68
2022-12-27T16:45:30.268Z,81.16
2022-12-27T16:48:01.074Z,80.40
2022-12-27T16:50:14.875Z,80.82
2022-12-27T16:52:24.010Z,80.81
2022-12-27T16:54:57.054Z,79.98
2022-12-27T16:57:24.863Z,80.89
2022-12-27T16:59:55.570Z,80.67
2022-12-27T17:01:58.223Z,79.75
2022-12-27T17:04:00.213Z,80.12
2022-12-27T17:06:38.272Z,80.66
2022-12-27T17:08:39.764Z,81.14
2022-12-27T17:10:44.560Z,79.53
2022-12-27T17:12:52.739Z,79.79
2022-12-27T17:15:00.463Z,79.69
2022-12-27T17:17:15.680Z,79.69
2022-12-27T17:19:43.211Z,78.72
2022-12-27T17:21:45.743Z,79.09
2022-12-27T17:23:50.344Z,79.04
2022-12-27T17:26:03.041Z,79.53
2022-12-27T17:28:21.288Z,78.49
2022-12-27T17:30:26.453Z,79.53
2022-12-27T17:32:55.465Z,79.54
2022-12-27T17:35:08.983Z,78.38
2022-12-27T17:37:11.339Z,78.75
2022-12-27T17:39:30.712Z,78.92
2022-12-27T17:41:59.783Z,79.41
2022-12-27T17:44:39.345Z,78.01
2022-12-27T17:47:04.065Z,78.60
2022-12-27T17:49:08.626Z,80.48
2022-12-27T17:51:18.467Z,80.28
2022-12-27T17:53:46.511Z,79.25
2022-12-27T17:56:19.617Z,79.26
2022-12-27T17:58:21.089Z,79.38
2022-12-27T18:00:30.971Z,79.23
2022-12-27T18:02:36.515Z,79.48
2022-12-27T18:04:43.194Z,79.27
2022-12-27T18:06:44.707Z,79.04
2022-12-27T18:08:49.182Z,79.37
2022-12-27T18:10:50.663Z,79.28
2022-12-27T18:12:55.569Z,79.17
2022-12-27T18:15:06.927Z,79.54
2022-12-27T18:17:28.457Z,79.95
2022-12-27T18:19:31.748Z,79.31
2022-12-27T18:21:33.199Z,79.69
2022-12-27T18:23:45.124Z,80.20
2022-12-27T18:25:52.058Z,80.52
2022-12-27T18:28:06.268Z,79.94
2022-12-27T18:30:11.144Z,79.90
2022-12-27T18:32:15.728Z,80.34
2022-12-27T18:34:31.426Z,79.89
2022-12-27T18:36:47.797Z,80.38
2022-12-27T18:38:59.503Z,80.15
2022-12-27T18:41:15.247Z,80.10
2022-12-27T18:43:16.707Z,80.59
2022-12-27T18:45:27.944Z,81.01
2022-12-27T18:47:29.733Z,80.87
2022-12-27T18:49:36.797Z,80.90
2022-12-27T18:51:38.936Z,81.32
2022-12-27T18:53:41.629Z,81.41
2022-12-27T18:56:04.723Z,81.32
2022-12-27T18:58:20.243Z,80.98
2022-12-27T19:00:25.652Z,81.32
2022-12-27T19:02:36.854Z,81.54
2022-12-27T19:04:38.371Z,81.41
2022-12-27T19:06:51.520Z,81.48
2022-12-27T19:08:53.132Z,81.44
2022-12-27T19:10:54.863Z,81.41
2022-12-27T19:12:57.084Z,81.19
2022-12-27T19:14:58.537Z,81.69
2022-12-27T19:17:02.879Z,81.13
2022-12-27T19:19:16.516Z,81.86
2022-12-27T19:21:21.016Z,81.98
2022-12-27T19:23:29.794Z,82.47
2022-12-27T19:25:37.309Z,82.17
2022-12-27T19:27:38.723Z,82.05
2022-12-27T19:29:52.997Z,81.92
2022-12-27T19:31:58.312Z,81.79
2022-12-27T19:34:07.035Z,81.85
2022-12-27T19:36:10.187Z,82.53
2022-12-27T19:38:26.913Z,82.20
2022-12-27T19:40:28.383Z,82.08
2022-12-27T19:42:34.785Z,82.01
2022-12-27T19:44:37.257Z,82.55
2022-12-27T19:46:38.930Z,82.65
2022-12-27T19:48:41.034Z,82.74
2022-12-27T19:50:49.046Z,82.29
2022-12-27T19:52:50.664Z,82.46
2022-12-27T19:54:59.755Z,82.40
2022-12-27T19:57:01.304Z,82.37
2022-12-27T19:59:02.764Z,82.20
2022-12-27T20:01:04.551Z,82.67
2022-12-27T20:03:05.975Z,82.32
2022-12-27T20:05:07.765Z,82.59
2022-12-27T20:07:19.398Z,82.80
2022-12-27T20:09:20.821Z,82.69
2022-12-27T20:11:23.325Z,82.19
2022-12-27T20:13:25.870Z,82.65
2022-12-27T20:15:30.598Z,82.79
2022-12-27T20:17:32.533Z,82.27
2022-12-27T20:19:34.016Z,83.02
2022-12-27T20:21:35.453Z,82.66
2022-12-27T20:23:37.319Z,82.77
2022-12-27T20:25:41.930Z,82.42
2022-12-27T20:27:44.531Z,82.88
2022-12-27T20:29:46.298Z,82.14
2022-12-27T20:31:49.938Z,82.16
2022-12-27T20:33:53.188Z,82.17
2022-12-27T20:35:57.041Z,82.56
2022-12-27T20:37:58.624Z,82.68
2022-12-27T20:39:59.982Z,83.02
2022-12-27T20:42:02.209Z,82.59
2022-12-27T20:44:03.875Z,83.02
2022-12-27T20:46:18.627Z,82.89
2022-12-27T20:48:20.082Z,83.02
2022-12-27T20:50:21.467Z,82.57
2022-12-27T20:52:27.266Z,82.26
2022-12-27T20:54:32.297Z,83.10
2022-12-27T20:56:35.096Z,82.90
2022-12-27T20:58:38.440Z,83.03
2022-12-27T21:00:41.282Z,82.77
2022-12-27T21:02:42.985Z,83.38
2022-12-27T21:04:44.524Z,83.27
2022-12-27T21:06:45.926Z,83.08
2022-12-27T21:08:52.545Z,83.16
2022-12-27T21:10:57.935Z,82.83
2022-12-27T21:12:59.326Z,82.14
2022-12-27T21:15:00.779Z,82.69
2022-12-27T21:17:03.076Z,82.80
2022-12-27T21:19:05.712Z,82.85
2022-12-27T21:21:11.823Z,83.27
2022-12-27T21:23:13.203Z,83.17
2022-12-27T21:25:14.613Z,83.09
2022-12-27T21:27:16.124Z,83.05
2022-12-27T21:29:19.189Z,83.04
2022-12-27T21:31:21.699Z,83.03
2022-12-27T21:33:23.911Z,83.18
2022-12-27T21:35:25.257Z,83.19
2022-12-27T21:37:26.760Z,83.27
2022-12-27T21:39:28.530Z,83.16
2022-12-27T21:41:35.136Z,82.88
2022-12-27T21:43:36.551Z,83.35
2022-12-27T21:45:37.945Z,82.96
2022-12-27T21:47:39.387Z,82.31
2022-12-27T21:49:41.374Z,82.45
2022-12-27T21:51:43.640Z,82.79
2022-12-27T21:53:45.580Z,81.99
2022-12-27T21:55:46.998Z,82.49
2022-12-27T21:57:48.396Z,83.00
2022-12-27T21:59:49.784Z,82.14
2022-12-27T22:01:52.254Z,82.36
2022-12-27T22:03:55.272Z,82.80
2022-12-27T22:05:56.671Z,82.84
2022-12-27T22:07:58.075Z,82.63
2022-12-27T22:09:59.459Z,82.42
2022-12-27T22:12:00.858Z,82.24
2022-12-27T22:14:03.140Z,81.84
2022-12-27T22:16:07.132Z,82.04
2022-12-27T22:18:08.771Z,81.50
2022-12-27T22:20:10.723Z,82.32
2022-12-27T22:22:12.190Z,82.39
2022-12-27T22:24:19.547Z,81.72
2022-12-27T22:26:24.834Z,82.11
2022-12-27T22:28:26.439Z,82.57
2022-12-27T22:30:27.859Z,82.06
2022-12-27T22:32:29.235Z,81.75
2022-12-27T22:34:30.595Z,81.55
2022-12-27T22:36:33.220Z,82.02
2022-12-27T22:38:36.620Z,82.07
2022-12-27T22:40:45.823Z,82.04
2022-12-27T22:42:48.098Z,82.17
2022-12-27T22:44:49.539Z,82.01
2022-12-27T22:49:12.429Z,82.55
2022-12-27T22:51:16.586Z,82.28
2022-12-27T22:53:18.044Z,81.61
2022-12-27T22:55:19.408Z,82.10
2022-12-27T22:57:20.804Z,82.25
2022-12-27T22:59:22.189Z,81.81
2022-12-27T23:01:28.756Z,81.67
2022-12-27T23:03:30.326Z,82.02
2022-12-27T23:05:31.704Z,81.38
2022-12-27T23:08:05.261Z,81.87
2022-12-27T23:09:54.578Z,81.63
2022-12-27T23:11:56.429Z,82.01
2022-12-27T23:14:04.062Z,81.48
2022-12-27T23:16:06.248Z,82.83
2022-12-27T23:18:07.816Z,81.34
2022-12-27T23:20:10.071Z,81.49
2022-12-27T23:22:11.434Z,81.74
2022-12-27T23:24:13.366Z,81.78
2022-12-27T23:26:17.853Z,81.67
2022-12-27T23:28:20.266Z,82.15
2022-12-27T23:30:22.881Z,81.76
2022-12-27T23:32:24.340Z,81.52
2022-12-27T23:34:28.827Z,81.14
2022-12-27T23:36:31.416Z,81.80
2022-12-27T23:38:33.249Z,81.85
2022-12-27T23:40:34.642Z,81.65
2022-12-27T23:42:36.015Z,81.66
2022-12-27T23:44:37.418Z,81.47
2022-12-27T23:46:38.837Z,82.17
2022-12-27T23:48:41.320Z,81.52
2022-12-27T23:50:42.922Z,81.92
2022-12-27T23:52:45.154Z,82.18
2022-12-27T23:54:46.543Z,81.82
2022-12-27T23:56:47.888Z,81.95
